createdAt,value
2022-08-17T00:02:26.467Z,7.78
2022-08-17T00:04:54.178Z,8.00
2022-08-17T00:07:20.872Z,7.38
2022-08-17T00:09:47.771Z,8.15
2022-08-17T00:12:43.193Z,8.05
2022-08-17T00:15:01.298Z,8.82
2022-08-17T00:17:27.928Z,9.40
2022-08-17T00:19:54.573Z,8.93
2022-08-17T00:22:33.585Z,9.27
2022-08-17T00:25:07.731Z,8.30
2022-08-17T00:27:35.248Z,9.13
2022-08-17T00:30:02.061Z,9.40
2022-08-17T00:33:12.432Z,8.38
2022-08-17T00:35:25.147Z,7.85
2022-08-17T00:37:52.560Z,7.68
2022-08-17T00:40:20.434Z,7.95
2022-08-17T00:42:48.294Z,8.13
2022-08-17T00:45:17.608Z,7.78
2022-08-17T00:47:44.420Z,8.38
2022-08-17T00:50:14.826Z,7.88
2022-08-17T00:52:54.174Z,7.60
2022-08-17T00:55:22.491Z,8.15
2022-08-17T00:57:55.165Z,7.80
2022-08-17T01:00:28.199Z,7.78
2022-08-17T01:02:58.996Z,6.68
2022-08-17T01:05:29.841Z,7.07
2022-08-17T01:07:57.281Z,7.57
2022-08-17T01:10:59.690Z,7.43
2022-08-17T01:13:18.023Z,8.63
2022-08-17T01:15:53.431Z,8.60
2022-08-17T01:18:20.116Z,7.80
2022-08-17T01:20:53.676Z,8.20
2022-08-17T01:23:23.440Z,7.78
2022-08-17T01:25:52.464Z,7.68
2022-08-17T01:28:52.750Z,8.18
2022-08-17T01:31:09.050Z,7.43
2022-08-17T01:33:36.258Z,7.82
2022-08-17T01:36:06.885Z,7.57
2022-08-17T01:38:38.282Z,8.18
2022-08-17T01:41:12.505Z,8.13
2022-08-17T01:43:51.973Z,7.70
2022-08-17T01:46:28.168Z,8.63
2022-08-17T01:48:57.475Z,8.85
2022-08-17T01:51:32.866Z,9.18
2022-08-17T01:54:05.294Z,8.68
2022-08-17T01:56:34.074Z,9.20
2022-08-17T01:59:00.842Z,8.45
2022-08-17T02:01:30.278Z,8.63
2022-08-17T02:04:01.234Z,8.63
2022-08-17T02:06:31.343Z,8.30
2022-08-17T02:09:16.848Z,9.82
2022-08-17T02:11:44.933Z,9.15
2022-08-17T02:14:13.258Z,7.97
2022-08-17T02:16:41.675Z,8.75
2022-08-17T02:19:12.175Z,8.60
2022-08-17T02:21:40.677Z,8.93
2022-08-17T02:24:10.979Z,8.65
2022-08-17T02:26:37.943Z,8.57
2022-08-17T02:29:04.888Z,8.80
2022-08-17T02:31:31.755Z,9.18
2022-08-17T02:34:03.830Z,8.80
2022-08-17T02:36:34.055Z,9.60
2022-08-17T02:39:02.704Z,9.70
2022-08-17T02:41:29.349Z,8.60
2022-08-17T02:43:55.977Z,8.23
2022-08-17T02:46:22.677Z,9.43
2022-08-17T02:48:49.465Z,8.90
2022-08-17T02:51:16.775Z,9.57
2022-08-17T02:53:43.568Z,9.23
2022-08-17T02:56:10.183Z,9.95
2022-08-17T02:58:36.783Z,9.55
2022-08-17T03:01:06.201Z,9.25
2022-08-17T03:03:33.162Z,9.60
2022-08-17T03:06:00.402Z,9.63
2022-08-17T03:08:27.262Z,8.70
2022-08-17T03:10:54.115Z,10.13
2022-08-17T03:13:20.937Z,9.82
2022-08-17T03:15:48.479Z,9.95
2022-08-17T03:18:25.802Z,9.25
2022-08-17T03:20:58.716Z,9.88
2022-08-17T03:23:27.308Z,9.43
2022-08-17T03:25:55.055Z,10.48
2022-08-17T03:28:23.462Z,10.18
2022-08-17T03:30:51.228Z,10.05
2022-08-17T03:33:19.153Z,9.95
2022-08-17T03:35:46.764Z,9.70
2022-08-17T03:38:15.091Z,9.05
2022-08-17T03:40:56.878Z,9.10
2022-08-17T03:43:29.341Z,8.85
2022-08-17T03:46:28.386Z,8.65
2022-08-17T03:49:19.337Z,8.77
2022-08-17T03:52:04.594Z,9.23
2022-08-17T03:54:49.869Z,7.97
2022-08-17T03:57:16.684Z,9.63
2022-08-17T03:59:43.389Z,8.93
2022-08-17T04:02:17.752Z,8.80
2022-08-17T04:04:44.776Z,9.30
2022-08-17T04:07:11.580Z,8.40
2022-08-17T04:09:38.234Z,9.20
2022-08-17T04:12:05.735Z,9.05
2022-08-17T04:14:36.676Z,9.38
2022-08-17T04:17:20.414Z,9.77
2022-08-17T04:19:47.177Z,9.23
2022-08-17T04:22:30.894Z,8.98
2022-08-17T04:25:14.777Z,9.43
2022-08-17T04:30:08.777Z,9.00
2022-08-17T04:33:04.058Z,9.50
2022-08-17T04:35:43.495Z,9.10
2022-08-17T04:38:16.354Z,9.20
2022-08-17T04:41:02.493Z,9.65
2022-08-17T04:43:32.012Z,9.90
2022-08-17T04:46:05.263Z,9.60
2022-08-17T04:48:37.042Z,9.48
2022-08-17T04:51:16.032Z,9.82
2022-08-17T04:53:45.278Z,9.35
2022-08-17T04:56:16.881Z,9.38
2022-08-17T04:58:49.945Z,8.80
2022-08-17T05:01:23.355Z,11.05
2022-08-17T05:03:54.778Z,9.10
2022-08-17T05:06:22.203Z,10.10
2022-08-17T05:08:48.880Z,10.77
2022-08-17T05:11:15.819Z,9.35
2022-08-17T05:13:42.710Z,8.98
2022-08-17T05:16:09.484Z,9.05
2022-08-17T05:18:38.762Z,9.55
2022-08-17T05:21:06.900Z,9.68
2022-08-17T05:23:41.628Z,9.57
2022-08-17T05:26:12.479Z,9.20
2022-08-17T05:29:00.587Z,9.80
2022-08-17T05:31:29.916Z,9.05
2022-08-17T05:33:56.849Z,11.27
2022-08-17T05:36:41.839Z,9.52
2022-08-17T05:39:10.757Z,9.80
2022-08-17T05:41:43.544Z,9.75
2022-08-17T05:44:10.683Z,8.43
2022-08-17T05:46:41.737Z,8.75
2022-08-17T05:49:08.703Z,8.20
2022-08-17T05:51:57.135Z,8.85
2022-08-17T05:54:26.443Z,8.98
2022-08-17T05:57:26.852Z,9.00
2022-08-17T06:00:26.371Z,9.63
2022-08-17T06:03:31.279Z,8.13
2022-08-17T06:06:01.437Z,7.82
2022-08-17T06:08:57.931Z,7.70
2022-08-17T06:11:24.494Z,7.55
2022-08-17T06:14:16.601Z,7.35
2022-08-17T06:16:50.778Z,6.45
2022-08-17T06:19:27.758Z,6.32
2022-08-17T06:21:55.033Z,5.88
2022-08-17T06:24:28.103Z,6.55
2022-08-17T06:27:01.420Z,5.22
2022-08-17T06:29:38.691Z,5.88
2022-08-17T06:34:47.121Z,5.57
2022-08-17T06:37:16.527Z,5.90
2022-08-17T06:40:14.513Z,6.43
2022-08-17T06:43:07.037Z,6.28
2022-08-17T06:45:59.185Z,7.05
2022-08-17T06:48:38.183Z,6.57
2022-08-17T06:51:19.070Z,6.80
2022-08-17T06:54:05.490Z,6.78
2022-08-17T06:57:07.101Z,6.68
2022-08-17T07:00:06.739Z,5.72
2022-08-17T07:02:52.566Z,5.95
2022-08-17T07:05:23.083Z,7.00
2022-08-17T07:08:18.856Z,5.35
2022-08-17T07:10:53.825Z,5.15
2022-08-17T07:13:42.997Z,4.68
2022-08-17T07:16:17.706Z,8.75
2022-08-17T07:18:44.657Z,7.30
2022-08-17T07:22:01.494Z,6.05
2022-08-17T07:24:47.320Z,4.72
2022-08-17T07:27:21.603Z,5.53
2022-08-17T07:29:50.587Z,4.32
2022-08-17T07:32:22.798Z,4.72
2022-08-17T07:35:31.321Z,3.97
2022-08-17T07:38:25.530Z,4.28
2022-08-17T07:41:03.019Z,4.00
2022-08-17T07:43:37.799Z,3.90
2022-08-17T07:46:41.129Z,3.60
2022-08-17T07:49:10.719Z,3.85
2022-08-17T07:51:43.274Z,3.60
2022-08-17T07:54:15.947Z,3.35
2022-08-17T07:56:45.249Z,3.30
2022-08-17T07:59:23.087Z,3.55
2022-08-17T08:02:06.262Z,3.25
2022-08-17T08:07:38.182Z,3.95
2022-08-17T08:10:07.522Z,3.50
2022-08-17T08:12:46.910Z,4.38
2022-08-17T08:15:21.322Z,4.05
2022-08-17T08:18:01.343Z,4.20
2022-08-17T08:20:53.884Z,4.13
2022-08-17T08:23:33.685Z,4.10
2022-08-17T08:26:18.928Z,3.67
2022-08-17T08:29:13.700Z,3.80
2022-08-17T08:31:48.414Z,3.80
2022-08-17T08:34:59.211Z,4.15
2022-08-17T08:37:34.437Z,3.92
2022-08-17T08:40:04.044Z,4.20
2022-08-17T08:42:40.574Z,3.95
2022-08-17T08:45:43.471Z,3.70
2022-08-17T08:48:53.156Z,3.58
2022-08-17T08:51:40.192Z,3.70
2022-08-17T08:54:15.653Z,3.42
2022-08-17T08:57:24.229Z,3.50
2022-08-17T09:00:15.478Z,3.35
2022-08-17T09:03:02.888Z,3.40
2022-08-17T09:05:38.235Z,3.38
2022-08-17T09:08:23.361Z,3.78
2022-08-17T09:10:56.794Z,3.58
2022-08-17T09:13:54.362Z,3.42
2022-08-17T09:16:42.753Z,3.17
2022-08-17T09:19:21.875Z,3.30
2022-08-17T09:22:07.586Z,3.40
2022-08-17T09:24:47.526Z,3.08
2022-08-17T09:27:40.131Z,3.37
2022-08-17T09:30:10.942Z,3.00
2022-08-17T09:32:46.092Z,2.97
2022-08-17T09:35:39.408Z,2.88
2022-08-17T09:38:05.943Z,2.85
2022-08-17T09:40:59.197Z,3.08
2022-08-17T09:43:50.526Z,2.78
2022-08-17T09:46:25.507Z,2.67
2022-08-17T09:49:29.429Z,2.50
2022-08-17T09:52:01.174Z,2.72
2022-08-17T09:54:40.906Z,2.90
2022-08-17T09:57:31.802Z,2.93
2022-08-17T10:00:10.160Z,2.33
2022-08-17T10:02:56.916Z,2.60
2022-08-17T10:05:37.688Z,2.90
2022-08-17T10:10:52.237Z,2.50
2022-08-17T10:13:54.678Z,2.70
2022-08-17T10:16:38.773Z,2.60
2022-08-17T10:19:14.389Z,2.80
2022-08-17T10:22:15.008Z,3.15
2022-08-17T10:25:23.263Z,2.80
2022-08-17T10:27:56.625Z,4.03
2022-08-17T10:30:27.431Z,4.20
2022-08-17T10:33:01.204Z,4.45
2022-08-17T10:36:10.644Z,4.63
2022-08-17T10:38:46.798Z,4.68
2022-08-17T10:41:20.785Z,4.75
2022-08-17T10:44:39.420Z,4.55
2022-08-17T10:47:11.719Z,4.60
2022-08-17T10:49:47.460Z,5.07
2022-08-17T10:52:19.852Z,4.95
2022-08-17T10:55:05.973Z,5.18
2022-08-17T10:57:37.654Z,5.40
2022-08-17T11:00:15.246Z,5.35
2022-08-17T11:02:42.272Z,5.53
2022-08-17T11:05:14.581Z,5.30
2022-08-17T11:07:59.841Z,5.53
2022-08-17T11:10:51.721Z,5.80
2022-08-17T11:13:37.731Z,5.30
2022-08-17T11:16:13.280Z,5.00
2022-08-17T11:19:08.598Z,5.47
2022-08-17T11:22:03.023Z,5.80
2022-08-17T11:24:35.415Z,6.00
2022-08-17T11:27:12.122Z,6.07
2022-08-17T11:30:04.830Z,5.35
2022-08-17T11:32:54.548Z,6.10
2022-08-17T11:35:21.649Z,4.28
2022-08-17T11:37:54.087Z,4.40
2022-08-17T11:40:20.688Z,4.38
2022-08-17T11:43:05.365Z,4.68
2022-08-17T11:45:45.190Z,4.57
2022-08-17T11:49:02.428Z,5.10
2022-08-17T11:52:01.135Z,4.28
2022-08-17T11:54:33.874Z,3.78
2022-08-17T11:57:26.907Z,4.22
2022-08-17T11:59:58.769Z,5.00
2022-08-17T12:02:28.010Z,3.92
2022-08-17T12:05:27.540Z,3.70
2022-08-17T12:08:06.197Z,4.18
2022-08-17T12:10:35.641Z,4.25
2022-08-17T12:13:14.765Z,4.18
2022-08-17T12:15:48.832Z,3.72
2022-08-17T12:18:28.036Z,4.03
2022-08-17T12:21:26.019Z,4.13
2022-08-17T12:24:21.139Z,3.95
2022-08-17T12:26:56.809Z,3.92
2022-08-17T12:29:35.166Z,4.07
2022-08-17T12:32:07.048Z,4.70
2022-08-17T12:34:43.225Z,4.70
2022-08-17T12:37:24.459Z,4.13
2022-08-17T12:40:18.384Z,5.10
2022-08-17T12:43:07.859Z,3.92
2022-08-17T12:45:39.447Z,4.10
2022-08-17T12:48:09.486Z,4.20
2022-08-17T12:50:38.524Z,3.85
2022-08-17T12:53:35.143Z,3.60
2022-08-17T12:56:07.468Z,3.85
2022-08-17T12:58:43.798Z,3.40
2022-08-17T13:01:15.853Z,3.85
2022-08-17T13:03:49.497Z,4.10
2022-08-17T13:06:37.323Z,3.70
2022-08-17T13:09:13.102Z,4.18
2022-08-17T13:11:51.886Z,4.32
2022-08-17T13:14:19.244Z,4.20
2022-08-17T13:17:09.705Z,4.32
2022-08-17T13:19:48.950Z,3.90
2022-08-17T13:22:15.606Z,4.47
2022-08-17T13:24:55.565Z,6.10
2022-08-17T13:27:25.744Z,5.75
2022-08-17T13:29:57.505Z,3.75
2022-08-17T13:32:47.354Z,4.93
2022-08-17T13:35:47.075Z,4.10
2022-08-17T13:38:35.927Z,5.00
2022-08-17T13:41:04.059Z,3.95
2022-08-17T13:43:46.312Z,4.72
2022-08-17T13:46:21.667Z,4.78
2022-08-17T13:49:09.603Z,6.13
2022-08-17T13:51:43.335Z,4.32
2022-08-17T13:54:24.935Z,4.00
2022-08-17T13:57:00.940Z,4.00
2022-08-17T13:59:52.728Z,3.65
2022-08-17T14:02:22.931Z,3.40
2022-08-17T14:04:54.181Z,3.95
2022-08-17T14:07:27.826Z,4.00
2022-08-17T14:09:59.622Z,4.10
2022-08-17T14:12:29.011Z,5.15
2022-08-17T14:14:56.682Z,5.55
2022-08-17T14:17:24.320Z,6.05
2022-08-17T14:19:51.305Z,5.00
2022-08-17T14:22:38.462Z,7.50
2022-08-17T14:25:08.669Z,6.47
2022-08-17T14:27:51.838Z,4.20
2022-08-17T14:30:26.936Z,4.90
2022-08-17T14:32:56.574Z,5.90
2022-08-17T14:35:25.180Z,4.43
2022-08-17T14:37:52.372Z,4.63
2022-08-17T14:40:20.942Z,4.60
2022-08-17T14:42:48.102Z,5.28
2022-08-17T14:45:30.314Z,4.03
2022-08-17T14:48:01.262Z,3.92
2022-08-17T14:50:27.870Z,4.28
2022-08-17T14:52:56.287Z,3.97
2022-08-17T14:55:25.013Z,4.40
2022-08-17T14:57:51.938Z,5.82
2022-08-17T15:00:18.748Z,4.90
2022-08-17T15:02:54.110Z,4.90
2022-08-17T15:05:24.554Z,4.18
2022-08-17T15:07:53.479Z,3.92
2022-08-17T15:10:20.291Z,3.70
2022-08-17T15:12:46.979Z,4.55
2022-08-17T15:15:15.765Z,3.90
2022-08-17T15:17:44.430Z,4.18
2022-08-17T15:20:18.187Z,4.43
2022-08-17T15:22:46.116Z,4.13
2022-08-17T15:25:13.529Z,4.10
2022-08-17T15:27:40.393Z,4.10
2022-08-17T15:30:09.417Z,7.07
2022-08-17T15:32:39.170Z,5.43
2022-08-17T15:35:08.825Z,5.97
2022-08-17T15:37:36.402Z,5.00
2022-08-17T15:40:04.477Z,5.22
2022-08-17T15:42:31.370Z,4.68
2022-08-17T15:45:00.033Z,5.05
2022-08-17T15:47:26.731Z,5.30
2022-08-17T15:49:57.949Z,4.20
2022-08-17T15:52:29.845Z,7.82
2022-08-17T15:54:59.222Z,6.65
2022-08-17T15:57:26.968Z,4.68
2022-08-17T15:59:58.629Z,4.10
2022-08-17T16:03:45.508Z,5.53
2022-08-17T16:05:23.447Z,5.32
2022-08-17T16:07:52.080Z,5.57
2022-08-17T16:10:19.578Z,4.57
2022-08-17T16:12:48.585Z,4.40
2022-08-17T16:15:16.792Z,6.10
2022-08-17T16:17:43.673Z,4.93
2022-08-17T16:20:19.950Z,18.63
2022-08-17T16:22:49.231Z,4.85
2022-08-17T16:25:23.052Z,7.53
2022-08-17T16:28:09.605Z,5.15
2022-08-17T16:30:37.428Z,5.35
2022-08-17T16:33:05.532Z,4.32
2022-08-17T16:35:33.297Z,4.32
2022-08-17T16:37:59.921Z,3.97
2022-08-17T16:40:29.319Z,4.10
2022-08-17T16:42:57.974Z,11.77
2022-08-17T16:45:27.501Z,39.47
2022-08-17T16:47:54.523Z,6.80
2022-08-17T16:50:23.866Z,4.55
2022-08-17T16:52:50.861Z,6.32
2022-08-17T16:55:20.468Z,4.60
2022-08-17T16:57:50.195Z,5.72
2022-08-17T17:00:19.345Z,5.43
2022-08-17T17:02:47.972Z,6.80
2022-08-17T17:05:44.032Z,5.57
2022-08-17T17:08:19.600Z,5.13
2022-08-17T17:10:49.747Z,5.20
2022-08-17T17:13:25.538Z,6.25
2022-08-17T17:16:03.433Z,6.38
2022-08-17T17:18:41.474Z,4.18
2022-08-17T17:21:14.441Z,4.30
2022-08-17T17:23:55.112Z,4.40
2022-08-17T17:26:39.468Z,4.45
2022-08-17T17:29:49.794Z,4.43
2022-08-17T17:32:31.807Z,4.70
2022-08-17T17:35:06.945Z,4.07
2022-08-17T17:37:35.328Z,4.50
2022-08-17T17:40:09.473Z,4.57
2022-08-17T17:42:40.548Z,5.90
2022-08-17T17:45:07.674Z,4.30
2022-08-17T17:47:36.260Z,4.03
2022-08-17T17:50:05.316Z,4.80
2022-08-17T17:52:50.831Z,4.45
2022-08-17T17:55:33.082Z,4.88
2022-08-17T17:58:42.597Z,5.57
2022-08-17T18:01:29.072Z,4.00
2022-08-17T18:04:17.028Z,4.60
2022-08-17T18:07:17.910Z,4.70
2022-08-17T18:10:19.673Z,4.35
2022-08-17T18:15:40.376Z,4.43
2022-08-17T18:18:17.179Z,4.53
2022-08-17T18:20:55.942Z,4.43
2022-08-17T18:23:28.215Z,4.00
2022-08-17T18:25:56.360Z,3.80
2022-08-17T18:28:43.936Z,4.15
2022-08-17T18:31:19.507Z,4.28
2022-08-17T18:33:49.153Z,4.85
2022-08-17T18:36:28.079Z,4.75
2022-08-17T18:39:19.944Z,4.90
2022-08-17T18:41:52.047Z,4.55
2022-08-17T18:44:30.100Z,4.53
2022-08-17T18:47:25.581Z,4.57
2022-08-17T18:49:58.574Z,4.82
2022-08-17T18:52:31.284Z,4.57
2022-08-17T18:55:03.617Z,4.57
2022-08-17T18:57:44.380Z,4.25
2022-08-17T19:00:31.042Z,3.90
2022-08-17T19:03:02.112Z,5.30
2022-08-17T19:05:34.849Z,4.80
2022-08-17T19:08:29.502Z,4.35
2022-08-17T19:10:58.833Z,4.78
2022-08-17T19:13:39.667Z,4.43
2022-08-17T19:16:41.759Z,4.53
2022-08-17T19:19:21.140Z,4.88
2022-08-17T19:21:53.790Z,5.22
2022-08-17T19:24:23.738Z,4.80
2022-08-17T19:26:58.778Z,5.07
2022-08-17T19:29:46.240Z,5.03
2022-08-17T19:32:16.461Z,5.40
2022-08-17T19:34:44.687Z,6.30
2022-08-17T19:37:17.310Z,6.28
2022-08-17T19:40:05.061Z,5.78
2022-08-17T19:42:47.699Z,7.38
2022-08-17T19:45:45.623Z,7.75
2022-08-17T19:48:46.387Z,6.63
2022-08-17T19:51:21.435Z,7.38
2022-08-17T19:54:05.040Z,7.18
2022-08-17T19:56:45.433Z,7.10
2022-08-17T19:59:35.784Z,6.78
2022-08-17T20:02:23.072Z,8.05
2022-08-17T20:04:52.733Z,4.65
2022-08-17T20:07:28.534Z,4.50
2022-08-17T20:10:08.202Z,5.30
2022-08-17T20:12:37.548Z,6.07
2022-08-17T20:15:10.041Z,8.07
2022-08-17T20:17:42.513Z,5.95
2022-08-17T20:20:19.606Z,7.32
2022-08-17T20:23:05.603Z,5.90
2022-08-17T20:25:36.565Z,6.15
2022-08-17T20:31:49.834Z,6.68
2022-08-17T20:34:25.470Z,6.53
2022-08-17T20:37:15.442Z,6.18
2022-08-17T20:40:05.818Z,7.43
2022-08-17T20:42:34.007Z,6.88
2022-08-17T20:45:22.081Z,6.20
2022-08-17T20:48:18.643Z,6.95
2022-08-17T20:50:44.098Z,5.83
2022-08-17T20:53:31.441Z,6.18
2022-08-17T20:55:58.501Z,6.68
2022-08-17T20:58:29.983Z,7.40
2022-08-17T21:00:58.619Z,7.25
2022-08-17T21:03:26.759Z,6.45
2022-08-17T21:06:17.314Z,5.53
2022-08-17T21:08:54.036Z,7.13
2022-08-17T21:11:57.222Z,7.20
2022-08-17T21:14:32.936Z,5.70
2022-08-17T21:17:17.519Z,4.35
2022-08-17T21:20:26.424Z,4.28
2022-08-17T21:23:07.183Z,5.05
2022-08-17T21:25:57.555Z,5.55
2022-08-17T21:28:36.207Z,4.65
2022-08-17T21:31:34.414Z,5.13
2022-08-17T21:34:16.659Z,6.65
2022-08-17T21:36:44.423Z,5.28
2022-08-17T21:39:14.456Z,6.70
2022-08-17T21:41:52.915Z,6.13
2022-08-17T21:44:21.547Z,7.03
2022-08-17T21:46:51.732Z,8.43
2022-08-17T21:49:21.175Z,7.60
2022-08-17T21:51:54.235Z,7.28
2022-08-17T21:54:31.357Z,7.03
2022-08-17T21:57:01.060Z,7.25
2022-08-17T21:59:35.665Z,7.55
2022-08-17T22:02:06.265Z,8.23
2022-08-17T22:04:38.463Z,8.18
2022-08-17T22:07:07.980Z,9.45
2022-08-17T22:09:47.996Z,8.65
2022-08-17T22:12:24.124Z,9.02
2022-08-17T22:14:57.997Z,8.95
2022-08-17T22:17:37.030Z,9.38
2022-08-17T22:20:18.210Z,8.57
2022-08-17T22:25:40.639Z,9.25
2022-08-17T22:28:10.450Z,10.45
2022-08-17T22:30:41.147Z,10.15
2022-08-17T22:33:32.874Z,10.93
2022-08-17T22:36:31.000Z,9.85
2022-08-17T22:39:23.043Z,10.27
2022-08-17T22:41:54.276Z,12.07
2022-08-17T22:44:29.625Z,10.23
2022-08-17T22:47:14.687Z,10.77
2022-08-17T22:49:58.464Z,10.63
2022-08-17T22:52:35.094Z,10.68
2022-08-17T22:55:35.506Z,10.27
2022-08-17T22:58:28.819Z,9.80
2022-08-17T23:00:55.879Z,19.88
2022-08-17T23:03:27.952Z,18.77
2022-08-17T23:06:09.639Z,13.02
2022-08-17T23:08:49.567Z,12.93
2022-08-17T23:11:16.471Z,11.98
2022-08-17T23:13:44.405Z,12.07
2022-08-17T23:16:11.045Z,11.80
2022-08-17T23:18:37.867Z,11.63
2022-08-17T23:21:05.680Z,11.48
2022-08-17T23:23:32.288Z,12.48
2022-08-17T23:25:58.872Z,11.80
2022-08-17T23:28:25.467Z,12.00
2022-08-17T23:30:52.119Z,15.18
2022-08-17T23:33:26.561Z,11.45
2022-08-17T23:35:54.060Z,17.83
2022-08-17T23:38:20.754Z,13.45
2022-08-17T23:40:47.331Z,17.58
2022-08-17T23:43:24.677Z,18.10
2022-08-17T23:45:57.971Z,12.68
2022-08-17T23:48:28.497Z,14.38
2022-08-17T23:51:05.886Z,13.93
2022-08-17T23:53:34.769Z,13.00
2022-08-17T23:56:09.591Z,12.63
2022-08-17T23:58:38.640Z,13.32
